Terminal Aerodrome Forecast
Issued by NWS Pueblo, CO

Current Version | Previous Version | Text Only | Print | Product List | Glossary On
Versions: 1 2 3 4 5 6 7 8 9 10 11 12 13 14 15 16 17 18 19 20 21 22 23 24 25 26 27 28 29 30 31 32 33 34 35 36 37 38
000
FTUS45 KPUB 281732
TAFCOS
TAF
KCOS 281732Z 2818/2918 04010KT P6SM VCSH BKN030
      TEMPO 2819/2822 5SM -SHRA BR BKN020
     FM282200 03014KT 3SM -SHRA BR SCT010 OVC020
     FM290400 01018G28KT 2SM -SHRASN BR OVC015
     FM290600 36015G25KT 1SM -SHSN BR OVC015
     FM291100 36015G30KT 3SM -SHSN BR BKN025
     FM291500 36020G35KT P6SM VCSH BKN025=

USA.gov is the U.S. government's official web portal to all federal, state and local government web resources and services.